Observations for Trim Patrick St
| Time | AQI | Temp °C | Hum % | Pres Pa | CO μg/m³ | H₂S μg/m³ | NO μg/m³ | NO₂ μg/m³ | O₃ μg/m³ | SO₂ μg/m³ | PM1 μg/m³ | PM2.5 μg/m³ | PM10 μg/m³ |
|---|---|---|---|---|---|---|---|---|---|---|---|---|---|
| Sunday 2 August 2026 | |||||||||||||
| 06:28 | 2 | 13.1 | 78 | 38,460 | 0.35 | 1.68 | 2.24 | 23.71 | 22.66 | 0 | 6.29 | 12.41 | 13.65 |
| 06:26 | 2 | 13.1 | 78 | 38,460 | 0.35 | 1.75 | 2.25 | 24.25 | 21.38 | 0 | 7.14 | 11.71 | 12.88 |
| 06:23 | 2 | 13 | 78 | 38,460 | 0.33 | 2.32 | 2.26 | 23.17 | 21.66 | 0 | 6.29 | 11 | 12.1 |
| 06:22 | 2 | 13 | 78 | 38,460 | 0.34 | 1.6 | 2.22 | 22.57 | 21.28 | 0 | 6.29 | 10.3 | 11.33 |
| 06:21 | 2 | 13 | 78 | 38,460 | 0.33 | 1.93 | 2.08 | 21.91 | 22.58 | 0 | 7.14 | 11.71 | 12.88 |
| 06:20 | 2 | 13 | 78 | 38,460 | 0.34 | 1.73 | 2.24 | 21.91 | 21.45 | 0 | 7.14 | 12.41 | 13.65 |
| 06:19 | 2 | 13 | 78 | 38,460 | 0.32 | 1.78 | 2.18 | 22.24 | 21.18 | 0 | 8 | 13.12 | 15.09 |
| 06:18 | 2 | 13 | 78 | 38,460 | 0.33 | 1.62 | 2.32 | 22.56 | 20.91 | 0 | 6.29 | 11 | 12.1 |
| 06:17 | 2 | 12.9 | 78 | 38,460 | 0.34 | 1.62 | 2.37 | 21.56 | 21.57 | 0 | 7.14 | 11.72 | 12.89 |
| 06:16 | 2 | 12.9 | 78 | 38,460 | 0.34 | 1.44 | 2.37 | 21.9 | 20.56 | 0 | 6.29 | 12.42 | 13.66 |
| 06:15 | 2 | 12.9 | 78 | 38,460 | 0.35 | 2.06 | 2.34 | 21.56 | 21.75 | 0 | 7.14 | 12.42 | 13.66 |
| 06:14 | 2 | 12.9 | 78 | 38,460 | 0.34 | 2.01 | 2.64 | 24.3 | 19.35 | 0 | 6.29 | 11.72 | 12.9 |
| 06:13 | 2 | 12.9 | 78 | 38,460 | 0.32 | 1.6 | 2.33 | 21.52 | 20.19 | 0 | 8 | 12.43 | 13.67 |
| 06:12 | 2 | 12.9 | 78 | 38,460 | 0.33 | 0.79 | 2.57 | 20.38 | 19.7 | 0 | 8.86 | 14.54 | 16 |
| 06:11 | 2 | 12.9 | 78 | 38,460 | 0.32 | 1.16 | 2.87 | 21.48 | 20.29 | 0 | 8.86 | 13.14 | 14.46 |
| 06:10 | 2 | 12.9 | 78 | 38,460 | 0.32 | 0.77 | 2.76 | 20 | 21.27 | 0 | 7.14 | 11.72 | 12.9 |
| 06:09 | 2 | 12.9 | 78 | 38,460 | 0.32 | 1 | 2.69 | 19.96 | 22.3 | 0 | 6.29 | 12.44 | 13.68 |
| 06:08 | 2 | 12.9 | 78 | 38,460 | 0.32 | 1 | 2.77 | 20.73 | 21.2 | 0 | 6.29 | 11.03 | 12.13 |
| 06:07 | 2 | 12.9 | 77 | 38,460 | 0.32 | 0.82 | 2.78 | 20.31 | 21.2 | 0 | 8 | 12.45 | 13.69 |
| 06:06 | 2 | 12.9 | 77 | 38,460 | 0.32 | 0.22 | 2.88 | 18.79 | 21.16 | 0 | 8 | 12.45 | 13.69 |